Time;durP1;ratioP1;P1;durP2;ratioP2;P2;SDS_P1;SDS_P2;PMS_P1;PMS_P2;Temp;Humidity;BMP_temperature;BMP_pressure;BME280_temperature;BME280_humidity;BME280_pressure;Samples;Min_cycle;Max_cycle;Signal;HPM_P1;HPM_P2
2022/03/21 00:01:24;;;;;;;;;;;2.40;72.70;;;;;;2621683;46;19935;31
2022/03/21 00:04:01;;;;;;;;;;;2.40;72.60;;;;;;2621657;46;19935;31
2022/03/21 00:06:37;;;;;;;;;;;2.30;72.50;;;;;;2621756;46;20009;31
2022/03/21 00:09:14;;;;;;;;;;;2.30;72.80;;;;;;2621954;46;19934;31
2022/03/21 00:11:55;;;;;;;;;;;2.30;72.80;;;;;;2621723;46;20685;31
2022/03/21 00:14:30;;;;;;;;;;;2.30;73.10;;;;;;2602687;54;20734;31
2022/03/21 00:17:06;;;;;;;;;;;2.20;73.20;;;;;;2617755;46;20689;31
2022/03/21 00:19:45;;;;;;;;;;;2.20;73.10;;;;;;2701535;39;20424;31
2022/03/21 00:22:20;;;;;;;;;;;2.20;73.10;;;;;;2603460;54;20677;31
2022/03/21 00:24:55;;;;;;;;;;;2.10;73.40;;;;;;2603330;54;19989;31
2022/03/21 00:27:33;;;;;;;;;;;2.10;73.50;;;;;;2603558;54;19934;31
2022/03/21 00:30:12;;;;;;;;;;;2.10;73.30;;;;;;2603154;54;19935;31
2022/03/21 00:32:47;;;;;;;;;;;2.10;73.50;;;;;;2603294;54;20003;31
2022/03/21 00:35:23;;;;;;;;;;;2.10;73.40;;;;;;2603370;54;19934;31
2022/03/21 00:37:58;;;;;;;;;;;2.00;73.20;;;;;;2622116;46;20744;31
2022/03/21 00:40:34;;;;;;;;;;;2.10;73.40;;;;;;2621685;46;19935;31
2022/03/21 00:43:11;;;;;;;;;;;2.10;73.70;;;;;;2622043;46;19993;31
2022/03/21 00:45:49;;;;;;;;;;;2.00;73.70;;;;;;2622060;46;19935;31
2022/03/21 00:48:23;;;;;;;;;;;2.00;73.60;;;;;;2603115;54;21267;31
2022/03/21 00:51:00;;;;;;;;;;;2.00;73.30;;;;;;2602937;54;20767;31
2022/03/21 00:53:35;;;;;;;;;;;1.90;73.80;;;;;;2603334;54;20684;31
2022/03/21 00:56:10;;;;;;;;;;;1.90;73.80;;;;;;2603307;54;20759;31
2022/03/21 00:58:45;;;;;;;;;;;1.90;73.90;;;;;;2603217;54;20819;31
2022/03/21 01:01:26;;;;;;;;;;;1.90;74.10;;;;;;2603372;54;19939;31
2022/03/21 01:04:01;;;;;;;;;;;1.80;74.40;;;;;;2603104;54;19935;31
2022/03/21 01:06:38;;;;;;;;;;;1.80;74.70;;;;;;2603439;54;22525;31
2022/03/21 01:09:17;;;;;;;;;;;1.70;75.20;;;;;;2603279;54;20744;31
2022/03/21 01:11:53;;;;;;;;;;;1.70;75.00;;;;;;2621542;46;20528;31
2022/03/21 01:14:28;;;;;;;;;;;1.60;75.10;;;;;;2603367;54;19965;31
2022/03/21 01:17:06;;;;;;;;;;;1.70;75.20;;;;;;2603315;54;19934;31
2022/03/21 01:19:41;;;;;;;;;;;1.60;75.40;;;;;;2602964;54;19997;31
2022/03/21 01:22:19;;;;;;;;;;;1.60;75.30;;;;;;2603311;54;19935;31
2022/03/21 01:24:55;;;;;;;;;;;1.60;75.60;;;;;;2611254;46;20841;31
2022/03/21 01:27:31;;;;;;;;;;;1.50;76.00;;;;;;2701189;39;21095;31
2022/03/21 01:30:08;;;;;;;;;;;1.50;75.50;;;;;;2621603;46;19941;31
2022/03/21 01:32:45;;;;;;;;;;;1.50;76.10;;;;;;2603178;54;21125;31
2022/03/21 01:35:21;;;;;;;;;;;1.50;76.40;;;;;;2603147;54;19935;31
2022/03/21 01:37:58;;;;;;;;;;;1.40;76.80;;;;;;2621398;46;20029;31
2022/03/21 01:40:38;;;;;;;;;;;1.40;77.30;;;;;;2603233;54;19934;31
2022/03/21 01:43:15;;;;;;;;;;;1.30;77.70;;;;;;2621760;46;19934;31
2022/03/21 01:45:48;;;;;;;;;;;1.30;78.10;;;;;;2602292;54;19948;31
2022/03/21 01:48:26;;;;;;;;;;;1.30;78.10;;;;;;2621766;46;19993;31
2022/03/21 01:51:03;;;;;;;;;;;1.20;77.60;;;;;;2602756;54;19958;31
2022/03/21 01:56:23;;;;;;;;;;;1.20;78.60;;;;;;2603189;54;20877;31
2022/03/21 01:58:56;;;;;;;;;;;1.10;78.40;;;;;;2603014;54;19946;31
2022/03/21 02:01:31;;;;;;;;;;;1.20;78.10;;;;;;2603106;54;20661;31
2022/03/21 02:04:12;;;;;;;;;;;1.10;78.50;;;;;;2602943;54;21263;31
2022/03/21 02:06:48;;;;;;;;;;;1.10;78.70;;;;;;2720148;39;21047;31
2022/03/21 02:09:22;;;;;;;;;;;1.10;78.80;;;;;;2603122;54;19958;31
2022/03/21 02:11:58;;;;;;;;;;;1.00;78.90;;;;;;2602944;54;19934;31
2022/03/21 02:14:39;;;;;;;;;;;1.00;78.90;;;;;;2602898;54;19934;31
2022/03/21 02:17:15;;;;;;;;;;;1.00;79.10;;;;;;2621356;46;20029;31
2022/03/21 02:19:53;;;;;;;;;;;1.00;78.70;;;;;;2616882;46;20787;31
2022/03/21 02:22:29;;;;;;;;;;;0.90;79.10;;;;;;2621402;46;19942;31
2022/03/21 02:25:05;;;;;;;;;;;0.90;79.60;;;;;;2602119;54;19968;31
2022/03/21 02:27:43;;;;;;;;;;;0.90;80.00;;;;;;2621317;46;20749;31
2022/03/21 02:30:19;;;;;;;;;;;0.90;80.00;;;;;;2621265;46;22276;31
2022/03/21 02:32:54;;;;;;;;;;;0.90;80.40;;;;;;2602207;54;20766;31
2022/03/21 02:35:32;;;;;;;;;;;0.80;80.20;;;;;;2602840;54;20711;31
2022/03/21 02:38:09;;;;;;;;;;;0.80;80.70;;;;;;2602822;54;19934;31
2022/03/21 02:40:44;;;;;;;;;;;0.70;80.00;;;;;;2621382;46;22311;31
2022/03/21 02:43:37;;;;;;;;;;;0.70;80.50;;;;;;2621302;46;19935;31
2022/03/21 02:46:17;;;;;;;;;;;0.70;81.00;;;;;;2602994;54;19934;31
2022/03/21 02:52:00;;;;;;;;;;;0.60;81.10;;;;;;2602794;54;19935;31
2022/03/21 02:54:39;;;;;;;;;;;0.60;81.30;;;;;;2621514;47;20774;31
2022/03/21 02:57:21;;;;;;;;;;;0.60;81.70;;;;;;2602723;54;20780;31
2022/03/21 03:08:59;;;;;;;;;;;0.50;81.80;;;;;;2620071;47;20789;31
2022/03/21 03:20:26;;;;;;;;;;;0.40;82.70;;;;;;2602755;54;21531;31
2022/03/21 03:26:23;;;;;;;;;;;0.30;83.00;;;;;;2602724;54;19934;31
2022/03/21 03:29:02;;;;;;;;;;;0.30;83.40;;;;;;2602607;54;19961;31
2022/03/21 03:31:43;;;;;;;;;;;0.20;83.80;;;;;;2620744;47;19942;31
2022/03/21 03:34:18;;;;;;;;;;;0.20;83.80;;;;;;2602343;54;19935;31
2022/03/21 03:36:57;;;;;;;;;;;0.10;84.20;;;;;;2613277;47;19968;31
2022/03/21 03:39:31;;;;;;;;;;;0.10;84.60;;;;;;2602012;54;19942;31
2022/03/21 03:42:09;;;;;;;;;;;0.10;84.40;;;;;;2603268;54;20740;31
2022/03/21 03:44:46;;;;;;;;;;;0.00;84.50;;;;;;2603631;54;19935;31
2022/03/21 03:47:24;;;;;;;;;;;0.00;84.90;;;;;;2621776;46;21059;31
2022/03/21 03:50:03;;;;;;;;;;;0.00;84.70;;;;;;2603568;54;20833;31
2022/03/21 03:52:37;;;;;;;;;;;0.00;85.20;;;;;;2621836;46;19946;31
2022/03/21 03:55:17;;;;;;;;;;;-0.10;85.40;;;;;;2617239;46;20013;31
2022/03/21 03:57:52;;;;;;;;;;;-0.10;85.30;;;;;;2602819;54;19968;31
2022/03/21 04:00:36;;;;;;;;;;;-0.10;85.90;;;;;;2603317;54;19934;31
2022/03/21 04:06:29;;;;;;;;;;;-0.10;86.20;;;;;;2603387;54;19950;31
2022/03/21 04:09:04;;;;;;;;;;;-0.20;86.50;;;;;;2621704;46;20500;31
2022/03/21 04:11:39;;;;;;;;;;;-0.20;86.80;;;;;;2720068;39;21347;31
2022/03/21 04:14:33;;;;;;;;;;;-0.20;86.60;;;;;;2603277;54;19943;31
2022/03/21 04:17:14;;;;;;;;;;;-0.20;86.60;;;;;;2622078;46;20857;31
2022/03/21 04:19:51;;;;;;;;;;;-0.20;86.80;;;;;;2701210;39;20453;31
2022/03/21 04:22:36;;;;;;;;;;;-0.30;87.40;;;;;;2606192;46;19964;31
2022/03/21 04:25:26;;;;;;;;;;;-0.30;87.60;;;;;;2603456;54;20756;31
2022/03/21 04:28:06;;;;;;;;;;;-0.30;87.20;;;;;;2602515;54;19942;31
2022/03/21 04:30:43;;;;;;;;;;;-0.30;87.70;;;;;;2603446;54;19959;31
2022/03/21 04:33:22;;;;;;;;;;;-0.40;87.70;;;;;;2622205;46;21491;31
2022/03/21 04:39:06;;;;;;;;;;;-0.40;88.40;;;;;;2621707;46;19934;31
2022/03/21 04:41:59;;;;;;;;;;;-0.40;88.60;;;;;;2603101;54;20775;31
2022/03/21 04:44:36;;;;;;;;;;;-0.50;89.00;;;;;;2622093;46;20790;31
2022/03/21 04:47:16;;;;;;;;;;;-0.50;88.80;;;;;;2603015;54;20720;31
2022/03/21 04:50:07;;;;;;;;;;;-0.50;88.90;;;;;;2603208;54;20830;31
2022/03/21 04:52:49;;;;;;;;;;;-0.50;89.30;;;;;;2603095;54;19934;31
2022/03/21 04:55:28;;;;;;;;;;;-0.50;89.50;;;;;;2602437;54;20751;31
2022/03/21 04:58:05;;;;;;;;;;;-0.50;89.50;;;;;;2621659;46;19946;31
2022/03/21 05:00:49;;;;;;;;;;;-0.50;89.60;;;;;;2621945;46;20781;31
2022/03/21 05:03:39;;;;;;;;;;;-0.50;89.70;;;;;;2603401;54;19958;31
2022/03/21 05:07:16;;;;;;;;;;;-0.50;89.50;;;;;;2603357;54;20812;31
2022/03/21 05:15:49;;;;;;;;;;;-0.50;90.10;;;;;;2602603;54;19942;31
2022/03/21 05:31:16;;;;;;;;;;;-0.40;90.60;;;;;;2602290;54;20021;31
2022/03/21 05:37:06;;;;;;;;;;;-0.40;91.00;;;;;;2621438;46;19977;31
2022/03/21 05:45:29;;;;;;;;;;;-0.20;91.00;;;;;;2621666;46;19987;31
2022/03/21 05:50:55;;;;;;;;;;;0.00;91.30;;;;;;2602443;54;20732;31
2022/03/21 05:53:41;;;;;;;;;;;0.10;91.40;;;;;;2602973;54;19934;31
2022/03/21 05:56:19;;;;;;;;;;;0.20;91.30;;;;;;2621595;46;20785;31
2022/03/21 05:59:07;;;;;;;;;;;;;;;;;;;;;
2022/03/21 06:01:46;;;;;;;;;;;0.90;93.10;;;;;;2621710;46;19935;31
2022/03/21 06:04:31;;;;;;;;;;;1.50;90.80;;;;;;2602797;54;20769;31
2022/03/21 06:07:10;;;;;;;;;;;2.10;89.20;;;;;;2603110;54;20020;31
2022/03/21 06:09:43;;;;;;;;;;;2.60;87.50;;;;;;2701701;39;22282;31
2022/03/21 06:12:31;;;;;;;;;;;3.00;85.80;;;;;;2621287;46;20005;31
2022/03/21 06:15:09;;;;;;;;;;;3.40;84.90;;;;;;2603147;54;19956;31
2022/03/21 06:17:46;;;;;;;;;;;3.90;84.00;;;;;;2603089;54;20756;31
2022/03/21 06:20:26;;;;;;;;;;;4.30;82.40;;;;;;2603048;54;20037;31
2022/03/21 06:23:05;;;;;;;;;;;4.70;81.70;;;;;;2602881;54;20749;31
2022/03/21 06:25:40;;;;;;;;;;;5.00;81.20;;;;;;2602894;54;20755;31
2022/03/21 06:28:16;;;;;;;;;;;5.50;79.80;;;;;;2602252;54;20798;31
2022/03/21 06:31:02;;;;;;;;;;;5.70;79.00;;;;;;2602928;54;19960;31
2022/03/21 06:33:38;;;;;;;;;;;6.00;78.10;;;;;;2621455;46;19941;31
2022/03/21 06:36:14;;;;;;;;;;;6.20;77.10;;;;;;2602620;54;20654;31
2022/03/21 06:38:53;;;;;;;;;;;6.50;76.80;;;;;;2701300;39;20394;31
2022/03/21 06:41:28;;;;;;;;;;;6.50;75.60;;;;;;2602786;54;19941;31
2022/03/21 06:44:03;;;;;;;;;;;6.90;77.30;;;;;;2602705;54;20673;31
2022/03/21 06:46:37;;;;;;;;;;;7.20;75.40;;;;;;2603139;54;20657;31
2022/03/21 06:49:14;;;;;;;;;;;7.20;74.30;;;;;;2621009;47;19942;31
2022/03/21 06:51:49;;;;;;;;;;;7.30;74.60;;;;;;2602824;54;19934;31
2022/03/21 06:54:27;;;;;;;;;;;7.50;73.80;;;;;;2602518;54;19956;31
2022/03/21 06:57:12;;;;;;;;;;;7.70;79.90;;;;;;2602766;54;19946;31
2022/03/21 06:59:49;;;;;;;;;;;7.70;72.50;;;;;;2621402;47;19960;31
2022/03/21 07:02:24;;;;;;;;;;;7.80;73.00;;;;;;2602714;54;19934;31
2022/03/21 07:04:59;;;;;;;;;;;7.80;71.80;;;;;;2621099;47;20794;31
2022/03/21 07:07:33;;;;;;;;;;;7.90;72.10;;;;;;2602718;54;21808;31
2022/03/21 07:10:10;;;;;;;;;;;8.00;71.40;;;;;;2602962;54;19941;31
2022/03/21 07:12:49;;;;;;;;;;;8.00;70.80;;;;;;2601986;54;19930;31
2022/03/21 07:15:24;;;;;;;;;;;8.10;71.60;;;;;;2620817;47;19943;31
2022/03/21 07:18:00;;;;;;;;;;;8.30;71.20;;;;;;2621376;47;19984;31
2022/03/21 07:20:37;;;;;;;;;;;8.30;70.50;;;;;;2615594;46;19965;31
2022/03/21 07:23:14;;;;;;;;;;;8.40;71.10;;;;;;2612181;46;19946;31
2022/03/21 07:25:49;;;;;;;;;;;8.60;71.00;;;;;;2622195;46;20792;31
2022/03/21 07:28:26;;;;;;;;;;;8.50;69.90;;;;;;2621950;46;19939;31
2022/03/21 07:31:19;;;;;;;;;;;8.40;70.30;;;;;;2621752;46;21124;31
2022/03/21 07:33:56;;;;;;;;;;;8.50;70.90;;;;;;2622009;46;20863;31
2022/03/21 07:36:38;;;;;;;;;;;8.70;70.30;;;;;;2622108;46;20714;31
2022/03/21 07:39:16;;;;;;;;;;;8.90;69.50;;;;;;2604803;46;20795;31
2022/03/21 07:42:00;;;;;;;;;;;9.10;69.10;;;;;;2603418;54;19935;31
2022/03/21 07:47:34;;;;;;;;;;;9.60;68.30;;;;;;2603436;54;20793;31
2022/03/21 07:50:10;;;;;;;;;;;9.80;69.40;;;;;;2603201;54;20021;31
2022/03/21 07:52:46;;;;;;;;;;;10.00;67.50;;;;;;2603080;54;20013;31
2022/03/21 07:55:21;;;;;;;;;;;10.00;67.70;;;;;;2603327;54;20757;31
2022/03/21 07:57:55;;;;;;;;;;;10.10;67.60;;;;;;2701895;39;20400;31
2022/03/21 08:00:31;;;;;;;;;;;10.20;67.90;;;;;;2773445;31;20533;31
2022/03/21 08:03:14;;;;;;;;;;;10.50;67.90;;;;;;2603477;54;19941;31
2022/03/21 08:05:50;;;;;;;;;;;10.80;67.90;;;;;;2603292;54;19990;31
2022/03/21 08:08:25;;;;;;;;;;;10.90;65.70;;;;;;2617862;46;20056;31
2022/03/21 08:11:01;;;;;;;;;;;10.80;65.50;;;;;;2619266;46;20821;31
2022/03/21 08:13:38;;;;;;;;;;;10.80;65.30;;;;;;2618865;46;20785;31
2022/03/21 08:16:13;;;;;;;;;;;10.90;66.60;;;;;;2602820;54;20021;31
2022/03/21 08:18:46;;;;;;;;;;;11.10;66.60;;;;;;2603157;54;20802;31
2022/03/21 08:21:26;;;;;;;;;;;11.30;65.40;;;;;;2621834;46;19934;31
2022/03/21 08:24:03;;;;;;;;;;;11.60;64.50;;;;;;2603042;54;20824;31
2022/03/21 08:26:40;;;;;;;;;;;11.80;65.00;;;;;;2621625;46;20775;31
2022/03/21 08:29:15;;;;;;;;;;;11.90;62.70;;;;;;2614407;46;20864;31
2022/03/21 08:31:52;;;;;;;;;;;12.10;62.60;;;;;;2619707;46;20013;31
2022/03/21 08:34:29;;;;;;;;;;;11.80;61.30;;;;;;2615935;46;19949;31
2022/03/21 08:37:07;;;;;;;;;;;11.80;61.60;;;;;;2621803;46;20746;31
2022/03/21 08:39:43;;;;;;;;;;;11.80;61.50;;;;;;2602540;54;20757;31
2022/03/21 08:42:18;;;;;;;;;;;12.00;64.20;;;;;;2621737;46;19939;31
2022/03/21 08:44:52;;;;;;;;;;;12.30;64.00;;;;;;2602367;54;20747;31
2022/03/21 08:47:27;;;;;;;;;;;12.50;61.20;;;;;;2605202;46;19938;31
2022/03/21 08:50:03;;;;;;;;;;;12.50;60.50;;;;;;2602463;54;19935;31
2022/03/21 08:52:40;;;;;;;;;;;12.60;60.80;;;;;;2621600;46;20835;31
2022/03/21 08:55:17;;;;;;;;;;;12.60;62.80;;;;;;2621705;46;20783;31
2022/03/21 08:57:52;;;;;;;;;;;12.70;61.00;;;;;;2603078;54;19989;31
2022/03/21 09:00:28;;;;;;;;;;;12.80;60.70;;;;;;2603166;54;19934;31
2022/03/21 09:03:03;;;;;;;;;;;12.80;60.00;;;;;;2603149;54;19934;31
2022/03/21 09:05:40;;;;;;;;;;;13.00;59.70;;;;;;2603127;54;20760;31
2022/03/21 09:08:18;;;;;;;;;;;12.90;59.30;;;;;;2621663;46;19942;31
2022/03/21 09:10:52;;;;;;;;;;;13.10;59.30;;;;;;2602399;54;19949;31
2022/03/21 09:13:29;;;;;;;;;;;13.30;59.00;;;;;;2620980;46;19973;31
2022/03/21 09:16:04;;;;;;;;;;;13.20;58.50;;;;;;2602302;54;19985;31
2022/03/21 09:18:40;;;;;;;;;;;13.30;57.90;;;;;;2602472;54;20769;31
2022/03/21 09:21:15;;;;;;;;;;;13.30;58.10;;;;;;2603342;54;19941;31
2022/03/21 09:23:54;;;;;;;;;;;13.40;57.50;;;;;;2603450;54;21295;31
2022/03/21 09:26:29;;;;;;;;;;;13.30;57.40;;;;;;2603040;54;20017;31
2022/03/21 09:29:04;;;;;;;;;;;13.30;56.50;;;;;;2620987;46;19934;31
2022/03/21 09:31:41;;;;;;;;;;;13.30;56.80;;;;;;2602164;54;19960;31
2022/03/21 09:34:17;;;;;;;;;;;13.10;55.10;;;;;;2621638;46;19942;31
2022/03/21 09:36:51;;;;;;;;;;;13.20;56.40;;;;;;2621668;46;19934;31
2022/03/21 09:39:28;;;;;;;;;;;13.10;55.80;;;;;;2621398;46;20756;31
2022/03/21 09:42:10;;;;;;;;;;;13.00;54.90;;;;;;2603090;54;19961;31
2022/03/21 09:44:46;;;;;;;;;;;13.00;54.40;;;;;;2602915;54;19941;31
2022/03/21 09:50:11;;;;;;;;;;;13.00;54.00;;;;;;2621739;46;20757;31
2022/03/21 09:52:46;;;;;;;;;;;13.00;53.50;;;;;;2603119;54;20733;31
2022/03/21 09:55:21;;;;;;;;;;;13.10;54.20;;;;;;2602734;54;20691;31
2022/03/21 09:57:58;;;;;;;;;;;13.10;53.90;;;;;;2602960;54;20751;31
2022/03/21 10:00:35;;;;;;;;;;;13.30;54.60;;;;;;2603126;54;19938;31
2022/03/21 10:03:10;;;;;;;;;;;13.30;53.80;;;;;;2603120;54;20639;31
2022/03/21 10:05:49;;;;;;;;;;;13.20;52.30;;;;;;2603223;54;19989;31
2022/03/21 10:08:27;;;;;;;;;;;13.10;51.70;;;;;;2621295;46;20013;31
2022/03/21 10:11:04;;;;;;;;;;;13.00;52.70;;;;;;2603046;54;19990;31
2022/03/21 10:13:43;;;;;;;;;;;12.90;52.60;;;;;;2719900;39;21585;31
2022/03/21 10:16:20;;;;;;;;;;;12.90;52.70;;;;;;2603051;54;19981;31
2022/03/21 10:19:00;;;;;;;;;;;13.00;53.00;;;;;;2621543;46;19942;31
2022/03/21 10:21:35;;;;;;;;;;;12.90;52.80;;;;;;2720106;39;21539;31
2022/03/21 10:24:10;;;;;;;;;;;12.80;52.60;;;;;;2602848;54;20741;31
2022/03/21 10:26:44;;;;;;;;;;;12.80;53.20;;;;;;2615914;46;21985;31
2022/03/21 10:29:25;;;;;;;;;;;12.90;53.20;;;;;;2598923;54;20760;31
2022/03/21 10:32:01;;;;;;;;;;;13.00;53.20;;;;;;2618433;46;19994;31
2022/03/21 10:34:40;;;;;;;;;;;13.10;52.60;;;;;;2670968;31;21459;31
2022/03/21 10:37:17;;;;;;;;;;;13.00;52.20;;;;;;2608966;46;20062;31
2022/03/21 10:39:57;;;;;;;;;;;13.00;52.20;;;;;;2701208;39;20397;31
2022/03/21 10:42:32;;;;;;;;;;;13.00;52.00;;;;;;2602774;54;19942;31
2022/03/21 10:45:22;;;;;;;;;;;13.10;51.00;;;;;;2620530;46;19934;31
2022/03/21 10:48:00;;;;;;;;;;;13.10;50.80;;;;;;2621077;47;19958;31
2022/03/21 10:50:37;;;;;;;;;;;13.20;51.50;;;;;;2701059;39;21376;31
2022/03/21 10:53:13;;;;;;;;;;;13.20;51.80;;;;;;2602858;54;20798;31
2022/03/21 10:55:48;;;;;;;;;;;13.20;52.20;;;;;;2603649;54;20682;31
2022/03/21 10:58:34;;;;;;;;;;;13.30;51.60;;;;;;2603496;54;19934;31
2022/03/21 11:01:14;;;;;;;;;;;13.20;51.10;;;;;;2622262;46;19935;31
2022/03/21 11:03:52;;;;;;;;;;;13.30;50.90;;;;;;2603580;54;20722;31
2022/03/21 11:06:27;;;;;;;;;;;13.40;51.70;;;;;;2603645;54;19935;31
2022/03/21 11:09:03;;;;;;;;;;;13.30;51.30;;;;;;2602715;54;19942;31
2022/03/21 11:11:38;;;;;;;;;;;13.20;51.00;;;;;;2622135;46;20691;31
2022/03/21 11:14:13;;;;;;;;;;;13.10;51.10;;;;;;2603753;54;19961;31
2022/03/21 11:16:50;;;;;;;;;;;13.00;51.30;;;;;;2702366;39;20368;31
2022/03/21 11:19:28;;;;;;;;;;;13.10;51.90;;;;;;2622013;46;19947;31
2022/03/21 11:22:03;;;;;;;;;;;13.10;51.50;;;;;;2622309;46;20659;31
2022/03/21 11:24:42;;;;;;;;;;;13.00;51.60;;;;;;2603694;54;19939;31
2022/03/21 11:27:27;;;;;;;;;;;13.00;52.10;;;;;;2603475;54;20784;31
2022/03/21 11:30:03;;;;;;;;;;;13.00;52.40;;;;;;2720392;39;22274;31
2022/03/21 11:32:43;;;;;;;;;;;13.00;52.20;;;;;;2603449;54;20012;31
2022/03/21 11:35:28;;;;;;;;;;;13.10;52.20;;;;;;2602698;54;20753;31
2022/03/21 11:38:18;;;;;;;;;;;13.20;51.40;;;;;;2603457;54;19972;31
2022/03/21 11:40:53;;;;;;;;;;;13.00;51.20;;;;;;2603490;54;19991;31
2022/03/21 11:43:29;;;;;;;;;;;12.90;51.40;;;;;;2603601;54;20759;31
2022/03/21 11:46:06;;;;;;;;;;;12.90;51.60;;;;;;2701084;39;20414;31
2022/03/21 11:48:42;;;;;;;;;;;12.90;51.70;;;;;;2602682;54;19942;31
2022/03/21 11:51:27;;;;;;;;;;;12.80;51.40;;;;;;2603553;54;20839;31
2022/03/21 11:54:07;;;;;;;;;;;12.90;51.60;;;;;;2603337;54;20743;31
2022/03/21 11:56:56;;;;;;;;;;;12.90;51.60;;;;;;2720330;39;20312;31
2022/03/21 11:59:47;;;;;;;;;;;12.80;51.80;;;;;;2622015;46;19935;31
2022/03/21 12:02:36;;;;;;;;;;;12.80;52.00;;;;;;2603237;54;19943;31
2022/03/21 12:05:12;;;;;;;;;;;12.90;52.60;;;;;;2621277;46;19931;31
2022/03/21 12:07:51;;;;;;;;;;;13.00;53.20;;;;;;2619228;46;20759;31
2022/03/21 12:10:38;;;;;;;;;;;13.00;51.50;;;;;;2621901;46;20787;31
2022/03/21 12:13:19;;;;;;;;;;;13.00;52.00;;;;;;2621655;46;20005;31
2022/03/21 12:15:54;;;;;;;;;;;12.90;52.20;;;;;;2603338;54;19946;31
2022/03/21 12:18:43;;;;;;;;;;;13.00;51.40;;;;;;2603226;54;19941;31
2022/03/21 12:21:20;;;;;;;;;;;12.90;51.40;;;;;;2603599;54;19934;31
2022/03/21 12:24:10;;;;;;;;;;;12.90;51.60;;;;;;2603402;54;19938;31
2022/03/21 12:26:58;;;;;;;;;;;12.90;51.60;;;;;;2603461;54;20792;31
2022/03/21 12:29:37;;;;;;;;;;;12.90;51.60;;;;;;2603411;54;20807;31
2022/03/21 12:32:29;;;;;;;;;;;12.90;52.10;;;;;;2603311;54;19941;31
2022/03/21 12:35:04;;;;;;;;;;;13.00;52.60;;;;;;2621856;46;19938;31
2022/03/21 12:37:44;;;;;;;;;;;13.00;52.90;;;;;;2621905;46;20757;31
2022/03/21 12:40:19;;;;;;;;;;;13.10;52.80;;;;;;2621836;46;20897;31
2022/03/21 12:42:57;;;;;;;;;;;13.10;50.80;;;;;;2622090;46;20736;31
2022/03/21 12:45:33;;;;;;;;;;;13.10;51.10;;;;;;2603318;54;19935;31
2022/03/21 12:48:17;;;;;;;;;;;13.20;51.80;;;;;;2701848;39;20437;31
2022/03/21 12:50:53;;;;;;;;;;;13.20;50.80;;;;;;2603310;54;20786;31
2022/03/21 12:53:27;;;;;;;;;;;13.20;51.70;;;;;;2603299;54;20663;31
2022/03/21 12:56:08;;;;;;;;;;;13.10;50.30;;;;;;2603283;54;20819;31
2022/03/21 12:58:46;;;;;;;;;;;13.10;51.10;;;;;;2603435;54;19941;31
2022/03/21 13:01:23;;;;;;;;;;;13.10;50.90;;;;;;2621995;46;19935;31
2022/03/21 13:10:32;;;;;;;;;;;13.00;50.30;;;;;;2621594;46;20886;31
2022/03/21 13:12:36;;;;;;;;;;;13.10;50.70;;;;;;2621985;46;19946;31
2022/03/21 13:15:15;;;;;;;;;;;13.10;50.70;;;;;;2621565;46;21252;31
2022/03/21 13:17:54;;;;;;;;;;;13.10;50.40;;;;;;2603254;54;19940;31
2022/03/21 13:20:31;;;;;;;;;;;13.20;50.20;;;;;;2621687;46;19934;31
2022/03/21 13:23:07;;;;;;;;;;;13.20;50.50;;;;;;2603351;54;20017;31
2022/03/21 13:25:50;;;;;;;;;;;13.20;51.10;;;;;;2602373;54;20743;31
2022/03/21 13:28:33;;;;;;;;;;;13.20;50.50;;;;;;2603302;54;21253;31
2022/03/21 13:31:14;;;;;;;;;;;13.20;50.40;;;;;;2621516;46;20817;31
2022/03/21 13:33:55;;;;;;;;;;;13.20;49.80;;;;;;2621217;46;20809;31
2022/03/21 13:36:33;;;;;;;;;;;13.20;48.70;;;;;;2603324;54;19935;31
2022/03/21 13:39:16;;;;;;;;;;;13.20;49.10;;;;;;2603142;54;19942;31
2022/03/21 13:41:56;;;;;;;;;;;13.10;49.70;;;;;;2621730;46;20756;31
2022/03/21 13:44:31;;;;;;;;;;;13.10;49.80;;;;;;2621708;46;19934;31
2022/03/21 13:47:11;;;;;;;;;;;13.00;49.60;;;;;;2603116;54;20017;31
2022/03/21 13:49:51;;;;;;;;;;;13.10;50.80;;;;;;2603151;54;20747;31
2022/03/21 13:52:41;;;;;;;;;;;13.10;49.00;;;;;;2603111;54;19946;31
2022/03/21 13:55:16;;;;;;;;;;;13.20;50.30;;;;;;2621487;46;20496;31
2022/03/21 13:57:52;;;;;;;;;;;13.20;50.70;;;;;;2603255;54;20627;31
2022/03/21 14:00:28;;;;;;;;;;;13.20;51.20;;;;;;2603058;54;19935;31
2022/03/21 14:03:06;;;;;;;;;;;13.20;50.20;;;;;;2603064;54;19935;31
2022/03/21 14:05:43;;;;;;;;;;;13.20;50.10;;;;;;2603074;54;20809;31
2022/03/21 14:08:18;;;;;;;;;;;13.20;50.80;;;;;;2603066;54;20737;31
2022/03/21 14:10:57;;;;;;;;;;;13.20;50.60;;;;;;2602994;54;20720;31
2022/03/21 14:13:35;;;;;;;;;;;13.30;51.00;;;;;;2621549;46;19934;31
2022/03/21 14:16:11;;;;;;;;;;;13.30;50.00;;;;;;2602727;54;20712;31
2022/03/21 14:18:57;;;;;;;;;;;13.30;49.80;;;;;;2602540;54;21165;31
2022/03/21 14:21:32;;;;;;;;;;;13.20;49.60;;;;;;2603001;54;19946;31
2022/03/21 14:24:07;;;;;;;;;;;13.30;50.00;;;;;;2602572;54;20001;31
2022/03/21 14:26:44;;;;;;;;;;;13.30;50.00;;;;;;2602307;54;19942;31
2022/03/21 14:29:21;;;;;;;;;;;13.30;50.40;;;;;;2603082;54;20761;31
2022/03/21 14:31:56;;;;;;;;;;;13.30;49.90;;;;;;2621373;46;19942;31
2022/03/21 14:34:34;;;;;;;;;;;13.30;50.40;;;;;;2602739;54;20804;31
2022/03/21 14:37:10;;;;;;;;;;;13.30;49.80;;;;;;2621584;46;20721;31
2022/03/21 14:39:45;;;;;;;;;;;13.30;50.20;;;;;;2621149;46;19946;31
2022/03/21 14:42:21;;;;;;;;;;;13.30;50.50;;;;;;2614618;46;20789;31
2022/03/21 14:44:58;;;;;;;;;;;13.30;49.30;;;;;;2603264;54;20773;31
2022/03/21 14:47:34;;;;;;;;;;;13.30;49.60;;;;;;2621403;46;21328;31
2022/03/21 14:50:28;;;;;;;;;;;13.30;50.50;;;;;;2602922;54;19939;31
2022/03/21 14:53:06;;;;;;;;;;;13.30;50.60;;;;;;2602934;54;19938;31
2022/03/21 14:55:43;;;;;;;;;;;13.30;50.10;;;;;;2602200;54;21138;31
2022/03/21 14:58:24;;;;;;;;;;;13.30;49.50;;;;;;2621487;47;20026;31
2022/03/21 15:01:06;;;;;;;;;;;13.30;49.10;;;;;;2602769;54;19935;31
2022/03/21 15:03:42;;;;;;;;;;;13.30;49.50;;;;;;2621157;47;20009;31
2022/03/21 15:06:17;;;;;;;;;;;13.30;50.10;;;;;;2620698;47;19935;31
2022/03/21 15:08:55;;;;;;;;;;;13.30;50.80;;;;;;2621508;47;19941;31
2022/03/21 15:11:34;;;;;;;;;;;13.30;50.30;;;;;;2621296;47;19941;31
2022/03/21 15:14:13;;;;;;;;;;;13.30;50.60;;;;;;2602783;54;19937;31
2022/03/21 15:16:50;;;;;;;;;;;13.30;51.00;;;;;;2602587;54;20761;31
2022/03/21 15:19:39;;;;;;;;;;;13.20;50.80;;;;;;2621585;47;19941;31
2022/03/21 15:22:17;;;;;;;;;;;13.30;50.90;;;;;;2602715;54;20715;31
2022/03/21 15:27:29;;;;;;;;;;;13.20;49.90;;;;;;2602847;54;20758;31
2022/03/21 15:30:06;;;;;;;;;;;13.20;50.30;;;;;;2602842;54;22345;31
2022/03/21 15:32:50;;;;;;;;;;;13.20;50.00;;;;;;2602706;54;19947;31
2022/03/21 15:35:24;;;;;;;;;;;13.20;49.70;;;;;;2602466;54;20528;31
2022/03/21 15:43:38;;;;;;;;;;;13.10;50.40;;;;;;2603714;54;20650;31
2022/03/21 15:46:17;;;;;;;;;;;13.10;50.00;;;;;;2603407;54;20774;31
2022/03/21 15:48:53;;;;;;;;;;;13.10;50.00;;;;;;2720360;39;22364;31
2022/03/21 15:51:30;;;;;;;;;;;13.10;50.50;;;;;;2622406;46;20740;31
2022/03/21 15:54:05;;;;;;;;;;;13.10;49.70;;;;;;2720632;39;20404;31
2022/03/21 15:56:46;;;;;;;;;;;13.10;50.20;;;;;;2609719;46;19934;31
2022/03/21 15:59:20;;;;;;;;;;;13.10;50.00;;;;;;2622317;46;20029;31
2022/03/21 16:01:58;;;;;;;;;;;13.10;51.40;;;;;;2603552;54;20001;31
2022/03/21 16:04:38;;;;;;;;;;;13.00;51.00;;;;;;2603221;54;20746;31
2022/03/21 16:07:16;;;;;;;;;;;13.00;50.30;;;;;;2603319;54;20717;31
2022/03/21 16:09:52;;;;;;;;;;;13.00;50.30;;;;;;2603644;54;20779;31
2022/03/21 16:12:30;;;;;;;;;;;12.90;50.50;;;;;;2701229;39;20416;31
2022/03/21 16:15:05;;;;;;;;;;;12.90;50.80;;;;;;2603438;54;20775;31
2022/03/21 16:17:42;;;;;;;;;;;12.90;49.90;;;;;;2602577;54;19970;31
2022/03/21 16:20:21;;;;;;;;;;;12.80;50.50;;;;;;2603591;54;20735;31
2022/03/21 16:22:56;;;;;;;;;;;12.70;50.50;;;;;;2622164;46;19957;31
2022/03/21 16:25:34;;;;;;;;;;;12.80;50.70;;;;;;2621738;46;19939;31
2022/03/21 16:28:11;;;;;;;;;;;12.70;51.00;;;;;;2603615;54;20013;31
2022/03/21 16:30:47;;;;;;;;;;;12.60;50.80;;;;;;2622128;46;20680;31
2022/03/21 16:33:25;;;;;;;;;;;12.60;50.20;;;;;;2621875;46;20623;31
2022/03/21 16:36:04;;;;;;;;;;;12.60;50.30;;;;;;2621868;46;20730;31
2022/03/21 16:38:40;;;;;;;;;;;12.50;50.80;;;;;;2621639;46;20660;31
2022/03/21 16:41:36;;;;;;;;;;;12.50;50.90;;;;;;2603250;54;20631;31
2022/03/21 16:44:11;;;;;;;;;;;12.40;51.10;;;;;;2621775;46;19940;31
2022/03/21 16:46:52;;;;;;;;;;;12.40;51.40;;;;;;2603277;54;19946;31
2022/03/21 16:49:32;;;;;;;;;;;12.40;51.50;;;;;;2621973;46;20372;31
2022/03/21 16:52:13;;;;;;;;;;;12.30;51.50;;;;;;2621815;46;20755;31
2022/03/21 16:54:48;;;;;;;;;;;12.30;51.90;;;;;;2603386;54;19993;31
2022/03/21 16:57:24;;;;;;;;;;;12.20;52.20;;;;;;2603029;54;20819;31
2022/03/21 17:00:00;;;;;;;;;;;12.20;51.90;;;;;;2719896;39;20472;31
2022/03/21 17:02:39;;;;;;;;;;;12.10;52.00;;;;;;2621409;46;20740;31
2022/03/21 17:05:15;;;;;;;;;;;12.10;52.20;;;;;;2603292;54;19996;31